Time;durP1;ratioP1;P1;durP2;ratioP2;P2;SDS_P1;SDS_P2;PMS_P1;PMS_P2;Temp;Humidity;BMP_temperature;BMP_pressure;BME280_temperature;BME280_humidity;BME280_pressure;Samples;Min_cycle;Max_cycle;Signal;HPM_P1;HPM_P2
2021/03/11 00:00:14;;;;;;;16.23;10.60;;;7.90;74.50;;;7.53;74.66;97749.50;5057008;28;21027;-68
2021/03/11 00:02:42;;;;;;;16.03;10.93;;;7.80;74.40;;;7.53;74.21;97748.66;5055032;28;20629;-68
2021/03/11 00:05:13;;;;;;;18.67;11.80;;;7.90;74.50;;;7.53;73.72;97736.53;5066674;28;21146;-68
2021/03/11 00:07:42;;;;;;;17.60;11.40;;;7.80;74.30;;;7.52;74.58;97741.81;5055439;28;20655;-68
2021/03/11 00:10:12;;;;;;;18.30;11.40;;;7.80;74.70;;;7.51;74.18;97740.13;5062865;28;21481;-68
2021/03/11 00:12:41;;;;;;;17.10;11.00;;;7.80;75.20;;;7.51;75.71;97732.34;5062691;28;20700;-68
2021/03/11 00:15:15;;;;;;;22.33;11.70;;;7.80;75.60;;;7.46;76.13;97729.22;5062230;28;21263;-68
2021/03/11 00:17:43;;;;;;;16.43;12.20;;;7.80;76.30;;;7.46;76.08;97734.41;5063878;28;20639;-68
2021/03/11 00:20:13;;;;;;;14.97;11.30;;;7.80;76.40;;;7.46;75.79;97736.16;5064521;28;20636;-68
2021/03/11 00:22:48;;;;;;;17.10;11.23;;;7.80;76.40;;;7.48;75.52;97729.94;5064967;28;20998;-68
2021/03/11 00:25:19;;;;;;;16.60;11.23;;;7.80;76.20;;;7.47;74.75;97736.06;5054355;28;20662;-68
2021/03/11 00:27:47;;;;;;;13.43;10.53;;;7.80;76.20;;;7.48;74.63;97741.16;5061760;28;20629;-68
2021/03/11 00:30:16;;;;;;;17.80;11.40;;;7.80;76.00;;;7.47;74.88;97733.47;5070604;28;20631;-68
2021/03/11 00:32:44;;;;;;;17.70;12.20;;;7.80;76.20;;;7.48;75.29;97736.91;5061015;28;20655;-68
2021/03/11 00:35:14;;;;;;;17.43;11.50;;;7.80;76.30;;;7.49;74.72;97742.00;5062980;28;20656;-68
2021/03/11 00:37:43;;;;;;;16.93;12.37;;;7.80;76.40;;;7.47;75.75;97733.47;5062309;28;20985;-68
2021/03/11 00:40:15;;;;;;;16.90;11.47;;;7.80;76.30;;;7.48;75.67;97733.38;5065433;28;21056;-68
2021/03/11 00:42:44;;;;;;;16.40;11.87;;;7.80;76.20;;;7.47;75.63;97732.63;5063802;28;20632;-68
2021/03/11 00:45:13;;;;;;;19.10;11.80;;;7.80;76.30;;;7.46;75.29;97729.22;5064836;28;20638;-68
2021/03/11 00:47:42;;;;;;;18.40;12.17;;;7.80;76.40;;;7.48;75.65;97726.53;5062945;28;20627;-68
2021/03/11 00:50:14;;;;;;;17.50;11.13;;;7.80;76.50;;;7.47;75.93;97723.09;5056778;28;20689;-68
2021/03/11 00:52:42;;;;;;;16.07;11.53;;;7.80;76.30;;;7.44;74.80;97718.09;5062497;28;20716;-68
2021/03/11 00:55:13;;;;;;;17.43;10.80;;;7.80;76.40;;;7.44;76.18;97712.91;5059050;28;20632;-68
2021/03/11 00:57:41;;;;;;;17.70;12.27;;;7.70;76.90;;;7.44;76.07;97712.91;5048804;28;20630;-68
2021/03/11 01:00:13;;;;;;;14.90;11.37;;;7.80;76.90;;;7.45;75.79;97711.16;5056722;28;20720;-68
2021/03/11 01:02:54;;;;;;;17.13;11.93;;;7.80;76.90;;;7.43;75.24;97708.66;5042903;28;20627;-68
2021/03/11 01:05:26;;;;;;;20.03;12.17;;;7.70;76.90;;;7.42;75.51;97706.97;5063466;28;21113;-68
2021/03/11 01:07:56;;;;;;;20.83;12.27;;;7.70;76.80;;;7.40;75.62;97713.22;5066869;28;20669;-68
2021/03/11 01:10:24;;;;;;;20.10;11.93;;;7.70;77.20;;;7.39;75.95;97696.78;5065129;28;20703;-68
2021/03/11 01:12:52;;;;;;;17.67;12.20;;;7.70;77.70;;;7.39;76.17;97698.56;5059987;28;20683;-68
2021/03/11 01:15:20;;;;;;;18.60;13.10;;;7.70;77.90;;;7.38;76.69;97684.78;5060153;28;20649;-68
2021/03/11 01:17:48;;;;;;;20.50;13.23;;;7.70;77.60;;;7.38;76.85;97681.31;5055226;28;20629;-68
2021/03/11 01:20:19;;;;;;;19.47;14.00;;;7.70;77.60;;;7.36;75.48;97684.00;5066915;28;20713;-68
2021/03/11 01:22:47;;;;;;;16.50;11.90;;;7.60;77.30;;;7.36;76.62;97681.44;5067452;28;20635;-68
2021/03/11 01:25:15;;;;;;;18.60;13.00;;;7.70;77.70;;;7.37;75.82;97677.91;5062482;28;20638;-69
2021/03/11 01:27:43;;;;;;;14.73;11.50;;;7.60;77.40;;;7.40;75.91;97682.09;5059612;28;21859;-70
2021/03/11 01:30:12;;;;;;;19.77;12.87;;;7.70;77.20;;;7.44;75.88;97686.13;5061626;28;20699;-70
2021/03/11 01:32:41;;;;;;;15.47;10.73;;;7.70;77.10;;;7.49;73.40;97687.53;5059204;28;20676;-70
2021/03/11 01:35:10;;;;;;;18.47;13.17;;;7.70;74.50;;;7.63;73.12;97695.28;5062784;28;20669;-70
2021/03/11 01:37:38;;;;;;;21.33;13.30;;;7.80;74.10;;;7.72;72.84;97684.31;5063033;28;20636;-70
2021/03/11 01:40:08;;;;;;;19.47;12.60;;;7.90;74.10;;;7.75;73.89;97679.75;5055367;28;20634;-70
2021/03/11 01:42:36;;;;;;;16.80;11.10;;;8.00;75.60;;;7.81;71.27;97675.94;5063182;28;20646;-70
2021/03/11 01:45:06;;;;;;;15.73;10.77;;;8.00;73.40;;;7.90;69.48;97670.16;5063583;28;21082;-70
2021/03/11 01:47:34;;;;;;;16.00;10.47;;;8.10;71.30;;;8.04;68.79;97656.19;5065326;28;20973;-70
2021/03/11 01:50:05;;;;;;;15.23;10.47;;;8.20;69.90;;;8.18;68.23;97661.34;5062382;28;20721;-70
2021/03/11 01:52:34;;;;;;;13.57;9.83;;;8.40;69.60;;;8.30;68.13;97647.53;5057614;28;20760;-70
2021/03/11 01:55:02;;;;;;;16.63;10.30;;;8.50;68.80;;;8.38;67.98;97644.44;5053497;28;20655;-70
2021/03/11 01:57:30;;;;;;;17.27;10.57;;;8.60;68.70;;;8.47;68.89;97636.84;5066228;28;20724;-70
2021/03/11 01:59:58;;;;;;;17.33;11.07;;;8.60;68.20;;;8.55;66.77;97632.81;5061744;28;21514;-70
2021/03/11 02:02:25;;;;;;;16.07;10.80;;;8.70;67.50;;;8.58;67.80;97613.56;5059438;28;20834;-70
2021/03/11 02:04:53;;;;;;;15.00;10.47;;;8.80;66.70;;;8.66;67.65;97593.06;5065424;28;20624;-70
2021/03/11 02:07:22;;;;;;;14.43;10.07;;;8.80;66.70;;;8.74;67.38;97593.38;5054050;28;20723;-70
2021/03/11 02:09:49;;;;;;;15.40;10.40;;;8.90;65.90;;;8.78;65.85;97597.41;5061023;28;20632;-70
2021/03/11 02:12:26;;;;;;;17.03;10.17;;;9.00;66.00;;;8.82;65.91;97591.91;5054368;28;20826;-70
2021/03/11 02:15:02;;;;;;;17.13;10.47;;;9.00;65.50;;;8.87;66.02;97578.59;5057328;28;20647;-70
2021/03/11 02:17:35;;;;;;;15.00;9.77;;;9.10;65.00;;;8.94;66.20;97572.84;5067101;28;20643;-70
2021/03/11 02:20:42;;;;;;;12.67;8.80;;;9.10;64.80;;;8.99;66.41;97562.94;5056997;28;20648;-70
2021/03/11 02:23:55;;;;;;;11.17;8.03;;;9.20;64.90;;;8.96;65.42;97551.00;5059276;28;20643;-70
2021/03/11 02:26:47;;;;;;;13.00;8.53;;;9.20;64.90;;;8.99;65.94;97542.13;5059510;28;20635;-70
2021/03/11 02:29:18;;;;;;;11.93;8.50;;;9.20;64.90;;;9.03;66.26;97536.63;5054493;28;20607;-70
2021/03/11 02:31:47;;;;;;;12.70;8.67;;;9.30;64.80;;;9.09;67.09;97538.78;5063607;28;21185;-70
2021/03/11 02:34:18;;;;;;;10.50;8.47;;;9.30;65.30;;;9.15;66.89;97532.31;5057457;28;20693;-68
2021/03/11 02:36:50;;;;;;;14.57;9.10;;;9.40;65.30;;;9.18;66.14;97519.09;5070177;28;20704;-68
2021/03/11 02:39:20;;;;;;;10.30;8.07;;;9.40;65.00;;;9.22;65.94;97520.56;5065544;28;21617;-68
2021/03/11 02:41:52;;;;;;;13.97;8.50;;;9.40;64.60;;;9.28;66.54;97515.72;5064315;28;20993;-68
2021/03/11 02:44:22;;;;;;;10.97;7.30;;;9.50;64.40;;;9.31;65.41;97499.88;5066329;28;20635;-68
2021/03/11 02:46:54;;;;;;;10.97;8.47;;;9.60;64.40;;;9.36;65.80;97494.34;5072832;28;20631;-68
2021/03/11 02:49:23;;;;;;;12.30;8.10;;;9.60;64.20;;;9.40;65.02;97481.81;5064229;28;20634;-68
2021/03/11 02:51:57;;;;;;;11.97;7.90;;;9.60;64.20;;;9.48;65.91;97481.25;5066491;28;20731;-68
2021/03/11 02:54:25;;;;;;;10.33;8.23;;;9.70;64.30;;;9.48;66.17;97479.47;5069413;28;20636;-68
2021/03/11 02:57:02;;;;;;;9.10;6.93;;;9.70;64.90;;;9.49;65.42;97473.34;5065502;28;20692;-68
2021/03/11 02:59:32;;;;;;;10.97;7.20;;;9.80;64.40;;;9.49;66.41;97480.34;5061011;28;20641;-68
2021/03/11 03:02:01;;;;;;;9.93;6.80;;;9.70;64.50;;;9.48;65.92;97461.25;5069419;28;21121;-68
2021/03/11 03:04:31;;;;;;;9.00;6.90;;;9.70;65.70;;;9.53;66.63;97446.16;5056104;28;20697;-68
2021/03/11 03:07:00;;;;;;;9.13;6.70;;;9.80;65.00;;;9.59;66.64;97442.25;5058771;28;21516;-68
2021/03/11 03:09:29;;;;;;;9.87;6.87;;;9.80;64.80;;;9.64;65.79;97453.16;5062365;28;21311;-68
2021/03/11 03:11:57;;;;;;;8.90;6.63;;;9.90;65.40;;;9.66;66.05;97446.88;5067800;28;20758;-68
2021/03/11 03:14:26;;;;;;;10.10;7.50;;;9.90;64.60;;;9.70;65.59;97447.50;5065087;28;21255;-68
2021/03/11 03:16:55;;;;;;;9.20;6.90;;;10.00;63.40;;;9.72;65.54;97443.00;5061000;28;21054;-68
2021/03/11 03:19:23;;;;;;;8.90;6.50;;;10.00;63.30;;;9.73;66.29;97436.84;5060812;28;20642;-68
2021/03/11 03:21:51;;;;;;;9.70;7.00;;;10.00;63.00;;;9.77;66.59;97433.06;5068667;28;21041;-68
2021/03/11 03:24:21;;;;;;;10.40;6.63;;;10.00;63.30;;;9.75;65.38;97430.56;5058448;28;21284;-68
2021/03/11 03:26:49;;;;;;;10.57;7.20;;;10.00;63.00;;;9.76;65.50;97420.97;5062275;28;20689;-68
2021/03/11 03:29:17;;;;;;;10.47;7.13;;;10.00;62.70;;;9.76;65.58;97421.81;5065422;28;20638;-68
2021/03/11 03:31:45;;;;;;;10.40;7.40;;;10.00;62.40;;;9.76;65.25;97416.63;5056823;28;20686;-68
2021/03/11 03:34:14;;;;;;;9.47;6.90;;;10.00;62.10;;;9.76;65.11;97415.78;5057179;28;20644;-68
2021/03/11 03:36:42;;;;;;;13.03;7.07;;;10.00;61.70;;;9.76;64.88;97414.00;5065800;28;20965;-68
2021/03/11 03:39:09;;;;;;;10.47;7.33;;;10.00;62.10;;;9.77;65.23;97414.84;5066727;28;20636;-68
2021/03/11 03:41:41;;;;;;;12.40;7.50;;;10.00;61.90;;;9.78;65.38;97408.69;5062285;28;20631;-68
2021/03/11 03:44:12;;;;;;;11.60;7.50;;;10.10;62.10;;;9.77;65.34;97402.63;5061437;28;21175;-68
2021/03/11 03:46:41;;;;;;;9.17;6.90;;;10.00;62.10;;;9.76;64.23;97413.16;5062219;28;20698;-68
2021/03/11 03:49:11;;;;;;;10.10;7.07;;;10.00;61.00;;;9.77;63.50;97407.03;5060657;28;21150;-68
2021/03/11 03:51:47;;;;;;;10.67;7.53;;;10.00;60.60;;;9.77;64.27;97401.81;5063188;28;20636;-68
2021/03/11 03:54:22;;;;;;;9.07;6.90;;;10.00;60.50;;;9.78;64.38;97393.06;5063638;28;21402;-68
2021/03/11 03:56:55;;;;;;;10.63;7.50;;;10.00;60.70;;;9.81;64.14;97398.84;5060109;28;21085;-68
2021/03/11 03:59:25;;;;;;;11.37;7.50;;;10.10;60.70;;;9.83;64.21;97390.94;5057463;28;20739;-68
2021/03/11 04:01:57;;;;;;;9.27;7.53;;;10.10;60.30;;;9.84;63.68;97399.44;5057880;28;21195;-68
2021/03/11 04:04:27;;;;;;;10.17;6.77;;;10.10;60.40;;;9.86;64.13;97402.78;5065773;28;20734;-68
2021/03/11 04:06:58;;;;;;;8.37;6.43;;;10.10;60.30;;;9.85;64.00;97397.69;5065262;28;20663;-68
2021/03/11 04:09:27;;;;;;;9.43;6.53;;;10.10;60.60;;;9.83;64.32;97390.94;5069794;28;20674;-68
2021/03/11 04:11:55;;;;;;;10.30;7.37;;;10.10;60.60;;;9.86;64.86;97394.97;5068041;28;21126;-68
2021/03/11 04:14:24;;;;;;;9.13;6.10;;;10.10;60.90;;;9.90;64.43;97393.78;5064833;28;20674;-68
2021/03/11 04:16:52;;;;;;;11.87;7.10;;;10.10;60.90;;;9.90;63.46;97398.97;5061385;28;20744;-68
2021/03/11 04:19:20;;;;;;;10.40;6.80;;;10.10;60.60;;;9.92;64.39;97394.50;5062669;28;20659;-68
2021/03/11 04:21:48;;;;;;;9.07;6.57;;;10.20;61.00;;;9.96;64.71;97397.72;5061753;28;20640;-68
2021/03/11 04:24:18;;;;;;;8.60;6.33;;;10.20;61.20;;;9.94;64.74;97390.03;5063733;28;20627;-68
2021/03/11 04:26:47;;;;;;;9.87;6.20;;;10.20;62.10;;;9.97;64.09;97394.19;5057307;28;20672;-68
2021/03/11 04:29:15;;;;;;;10.87;6.63;;;10.20;60.80;;;9.97;64.36;97383.75;5062957;28;20643;-68
2021/03/11 04:31:44;;;;;;;7.93;5.80;;;10.20;61.10;;;9.98;64.52;97374.97;5065671;28;21228;-67
2021/03/11 04:34:12;;;;;;;8.10;6.30;;;10.20;61.40;;;10.02;64.90;97374.63;5057756;28;20635;-68
2021/03/11 04:36:40;;;;;;;9.23;6.97;;;10.20;61.20;;;10.08;64.97;97375.94;5065665;28;20766;-68
2021/03/11 04:39:08;;;;;;;7.87;5.90;;;10.30;61.40;;;10.16;64.51;97374.38;5066524;28;20213;-68
2021/03/11 04:41:37;;;;;;;10.57;6.70;;;10.40;61.40;;;10.26;63.99;97384.94;5067715;28;20748;-68
2021/03/11 04:44:06;;;;;;;7.57;5.60;;;10.50;60.80;;;10.26;64.28;97383.16;5062575;28;21166;-68
2021/03/11 04:46:34;;;;;;;17.33;6.50;;;10.50;60.80;;;10.30;64.39;97376.75;5058975;28;20982;-68
2021/03/11 04:49:03;;;;;;;9.10;6.13;;;10.50;60.70;;;10.35;64.26;97366.78;5057211;28;20990;-70
2021/03/11 04:51:33;;;;;;;10.93;5.80;;;10.60;60.60;;;10.37;64.11;97373.53;5060278;28;20648;-69
2021/03/11 04:54:01;;;;;;;8.00;5.67;;;10.60;61.20;;;10.39;64.82;97376.03;5066794;28;20627;-68
2021/03/11 04:56:42;;;;;;;7.60;6.20;;;10.70;60.80;;;10.38;64.54;97358.72;5062747;28;20628;-68
2021/03/11 04:59:10;;;;;;;6.93;5.33;;;10.60;60.80;;;10.37;64.46;97370.09;5065131;28;21918;-68
2021/03/11 05:01:42;;;;;;;7.70;5.87;;;10.60;61.00;;;10.35;64.87;97372.81;5061312;28;20643;-68
2021/03/11 05:04:11;;;;;;;6.60;5.70;;;10.60;61.20;;;10.39;65.19;97366.41;5069848;28;21042;-68
2021/03/11 05:06:39;;;;;;;7.17;5.60;;;10.60;61.30;;;10.43;65.07;97373.06;5065481;28;20659;-68
2021/03/11 05:09:07;;;;;;;13.03;6.50;;;10.70;61.40;;;10.45;65.17;97370.34;5059860;28;20654;-68
2021/03/11 05:11:34;;;;;;;8.07;6.00;;;10.70;61.80;;;10.46;65.50;97380.63;5056760;28;21174;-68
2021/03/11 05:14:03;;;;;;;8.53;6.17;;;10.70;61.90;;;10.44;65.27;97366.06;5062371;28;21054;-68
2021/03/11 05:16:31;;;;;;;9.93;5.70;;;10.70;61.70;;;10.46;65.33;97377.19;5062790;28;21182;-68
2021/03/11 05:18:58;;;;;;;7.63;5.70;;;10.70;61.70;;;10.44;64.96;97377.31;5068212;28;20643;-68
2021/03/11 05:21:26;;;;;;;8.10;6.23;;;10.70;61.70;;;10.43;65.42;97378.28;5057608;28;21072;-68
2021/03/11 05:23:59;;;;;;;7.53;6.00;;;10.70;62.10;;;10.39;64.99;97371.63;5067205;28;20663;-68
2021/03/11 05:26:27;;;;;;;8.30;5.67;;;10.70;62.30;;;10.38;66.57;97369.16;5060678;28;20628;-69
2021/03/11 05:28:54;;;;;;;10.80;6.10;;;10.70;62.90;;;10.38;66.09;97374.38;5062114;28;20640;-68
2021/03/11 05:31:23;;;;;;;6.13;5.03;;;10.70;63.20;;;10.34;66.65;97371.19;5054292;28;20759;-68
2021/03/11 05:33:51;;;;;;;11.60;5.27;;;10.60;63.70;;;10.31;67.10;97367.97;5067964;28;20995;-68
2021/03/11 05:36:19;;;;;;;6.83;5.27;;;10.60;64.10;;;10.31;67.35;97367.97;5064693;28;20676;-68
2021/03/11 05:38:47;;;;;;;7.00;4.73;;;10.60;64.40;;;10.34;67.72;97363.34;5061993;28;20639;-68
2021/03/11 05:41:15;;;;;;;7.37;5.10;;;10.60;64.70;;;10.27;68.66;97363.13;5060985;28;21174;-69
2021/03/11 05:43:43;;;;;;;5.23;4.43;;;10.50;66.00;;;10.26;69.96;97364.09;5065392;28;20731;-69
2021/03/11 05:46:11;;;;;;;5.87;4.53;;;10.50;67.30;;;10.17;70.52;97362.19;5065873;28;20701;-69
2021/03/11 05:48:41;;;;;;;7.27;4.97;;;10.30;68.60;;;10.13;71.21;97361.63;5059369;28;20639;-69
2021/03/11 05:51:09;;;;;;;6.90;5.37;;;10.30;69.80;;;10.13;72.09;97352.94;5053126;28;20647;-69
2021/03/11 05:53:38;;;;;;;6.60;4.30;;;10.30;70.80;;;10.10;72.74;97353.19;5057471;28;21194;-68
2021/03/11 05:56:07;;;;;;;8.60;3.90;;;10.20;71.60;;;10.03;73.39;97341.63;5055610;28;20636;-68
2021/03/11 05:58:35;;;;;;;5.23;4.03;;;10.20;72.50;;;10.05;73.35;97350.94;5063347;28;20636;-68
2021/03/11 06:01:03;;;;;;;4.77;3.80;;;10.20;72.90;;;10.05;74.16;97344.91;5056926;28;20957;-68
2021/03/11 06:03:33;;;;;;;4.70;3.80;;;10.20;73.40;;;10.02;73.81;97345.97;5061047;28;20713;-68
2021/03/11 06:06:03;;;;;;;6.00;3.90;;;10.20;73.80;;;10.05;74.15;97350.94;5061334;28;21005;-68
2021/03/11 06:08:33;;;;;;;6.97;4.20;;;10.20;73.80;;;10.09;73.97;97341.94;5069983;28;20636;-68
2021/03/11 06:11:02;;;;;;;4.47;3.57;;;10.20;73.90;;;10.06;73.30;97336.97;5064475;28;20631;-68
2021/03/11 06:13:30;;;;;;;6.10;4.10;;;10.20;74.20;;;10.09;74.45;97333.31;5073459;28;21018;-68
2021/03/11 06:16:07;;;;;;;6.93;4.03;;;10.20;74.40;;;10.07;74.80;97322.16;5064650;28;20644;-68
2021/03/11 06:18:37;;;;;;;4.43;3.60;;;10.20;74.70;;;10.10;74.00;97317.56;5066254;28;20640;-68
2021/03/11 06:21:06;;;;;;;6.20;3.90;;;10.20;75.40;;;10.11;74.53;97315.78;5065298;28;20636;-68
2021/03/11 06:23:35;;;;;;;5.37;3.67;;;10.20;74.80;;;10.08;74.75;97306.41;5063405;28;20862;-68
2021/03/11 06:26:02;;;;;;;5.10;3.93;;;10.20;74.90;;;10.13;74.62;97306.91;5062311;28;20723;-68
2021/03/11 06:28:52;;;;;;;6.10;3.87;;;10.20;75.00;;;10.15;75.01;97298.94;5059013;28;20747;-68
2021/03/11 06:31:22;;;;;;;4.23;3.67;;;10.20;75.10;;;10.18;74.67;97289.13;5062498;28;20659;-68
2021/03/11 06:33:52;;;;;;;5.10;4.03;;;10.30;75.30;;;10.23;74.42;97299.19;5057511;28;20651;-69
2021/03/11 06:36:23;;;;;;;3.90;3.13;;;10.30;75.20;;;10.26;74.43;97302.38;5059398;28;21075;-68
2021/03/11 06:38:51;;;;;;;4.10;3.43;;;10.40;75.20;;;10.28;75.00;97305.66;5057500;28;20631;-68
2021/03/11 06:41:19;;;;;;;5.93;3.97;;;10.40;75.50;;;10.28;74.60;97305.66;5067505;28;20995;-68
2021/03/11 06:44:00;;;;;;;5.03;3.60;;;10.40;75.30;;;10.26;74.77;97299.75;5065063;28;20639;-68
2021/03/11 06:46:30;;;;;;;7.67;4.30;;;10.40;75.60;;;10.31;74.75;97297.59;5059700;28;20643;-69
2021/03/11 06:49:08;;;;;;;5.27;3.57;;;10.40;75.70;;;10.32;75.08;97296.66;5061439;28;20676;-67
2021/03/11 06:51:39;;;;;;;6.90;4.07;;;10.50;75.80;;;10.37;74.72;97297.13;5063267;28;20631;-67
2021/03/11 06:54:08;;;;;;;8.53;3.67;;;10.50;75.60;;;10.39;74.99;97295.22;5068855;28;20670;-67
2021/03/11 06:56:42;;;;;;;5.20;4.20;;;10.50;75.90;;;10.41;75.17;97288.94;5060479;28;20640;-68
2021/03/11 06:59:10;;;;;;;8.20;5.60;;;10.50;76.00;;;10.47;74.91;97285.00;5063749;28;20635;-68
2021/03/11 07:01:52;;;;;;;6.10;2.87;;;10.60;75.80;;;10.48;74.58;97290.09;5068955;28;20635;-68
2021/03/11 07:04:23;;;;;;;3.67;3.07;;;10.60;75.70;;;10.54;74.86;97273.13;5057310;28;20644;-68
2021/03/11 07:06:52;;;;;;;5.23;3.80;;;10.70;76.10;;;10.54;74.58;97276.56;5066630;28;20657;-68
2021/03/11 07:09:19;;;;;;;4.60;3.80;;;10.70;75.80;;;10.60;74.70;97277.81;5071461;28;20643;-68
2021/03/11 07:11:54;;;;;;;5.63;3.30;;;10.70;76.10;;;10.61;75.07;97282.91;5061583;28;20631;-68
2021/03/11 07:14:27;;;;;;;4.40;3.50;;;10.70;76.10;;;10.65;75.15;97273.91;5054112;28;21282;-68
2021/03/11 07:16:55;;;;;;;4.23;3.07;;;10.80;75.80;;;10.66;74.93;97277.34;5062415;28;20636;-68
2021/03/11 07:19:22;;;;;;;4.13;3.30;;;10.80;75.80;;;10.65;74.95;97266.09;5061988;28;20627;-68
2021/03/11 07:21:53;;;;;;;4.50;2.83;;;10.80;75.80;;;10.71;73.75;97273.41;5060818;28;20633;-68
2021/03/11 07:24:33;;;;;;;3.60;2.43;;;10.80;75.30;;;10.75;74.65;97268.75;5059386;28;20639;-68
2021/03/11 07:27:03;;;;;;;4.00;3.00;;;10.80;75.10;;;10.81;74.38;97269.91;5068442;28;20639;-68
2021/03/11 07:29:31;;;;;;;5.67;3.00;;;10.90;75.50;;;10.82;73.75;97261.16;5061995;28;20621;-68
2021/03/11 07:32:00;;;;;;;4.00;2.80;;;10.90;74.80;;;10.91;73.48;97269.97;5056351;28;20636;-68
2021/03/11 07:34:30;;;;;;;5.97;3.20;;;11.00;75.30;;;10.98;73.65;97266.75;5064215;28;20674;-68
2021/03/11 07:37:00;;;;;;;4.13;3.13;;;11.00;74.60;;;11.10;72.47;97273.56;5067716;28;20746;-68
2021/03/11 07:39:35;;;;;;;4.53;3.50;;;11.20;74.30;;;11.20;72.80;97274.44;5058537;28;20284;-67
2021/03/11 07:42:06;;;;;;;2.97;2.57;;;11.30;73.90;;;11.22;72.69;97285.56;5066411;28;21186;-69
2021/03/11 07:44:35;;;;;;;4.90;3.83;;;11.30;73.80;;;11.29;73.01;97282.31;5059401;28;20647;-68
2021/03/11 07:47:06;;;;;;;3.70;2.80;;;11.40;73.80;;;11.34;73.11;97281.94;5067995;28;20636;-68
2021/03/11 07:49:34;;;;;;;4.60;2.60;;;11.50;73.80;;;11.40;72.23;97273.59;5053949;28;21402;-68
2021/03/11 07:52:04;;;;;;;4.60;2.73;;;11.50;73.50;;;11.43;72.09;97281.16;5065337;28;20635;-68
2021/03/11 07:54:33;;;;;;;3.67;2.30;;;11.60;73.70;;;11.41;72.54;97270.00;5069301;28;20656;-68
2021/03/11 07:57:02;;;;;;;4.40;2.90;;;11.50;74.10;;;11.41;73.71;97267.41;5068210;28;20631;-68
2021/03/11 07:59:31;;;;;;;2.77;2.27;;;11.50;73.30;;;11.48;72.25;97271.19;5066036;28;20631;-68
2021/03/11 08:02:02;;;;;;;3.33;2.37;;;11.60;73.80;;;11.43;72.81;97266.31;5063431;28;20639;-68
2021/03/11 08:04:35;;;;;;;4.17;2.37;;;11.60;73.80;;;11.49;72.93;97262.41;5066884;28;21007;-68
2021/03/11 08:07:20;;;;;;;3.60;2.50;;;11.60;73.90;;;11.48;73.65;97271.19;5063571;28;21853;-68
2021/03/11 08:09:50;;;;;;;3.87;2.23;;;11.50;74.00;;;11.53;72.56;97261.16;5063901;28;20643;-68
2021/03/11 08:12:34;;;;;;;2.90;2.00;;;11.60;74.30;;;11.57;74.21;97255.56;5061407;28;20647;-68
2021/03/11 08:15:06;;;;;;;3.33;2.50;;;11.60;74.40;;;11.59;74.33;97251.03;5060768;28;21053;-68
2021/03/11 08:17:43;;;;;;;3.20;2.43;;;11.70;74.60;;;11.63;74.05;97243.75;5055089;28;20634;-68
2021/03/11 08:20:38;;;;;;;3.63;2.30;;;11.70;74.60;;;11.71;74.37;97257.78;5068554;28;20976;-68
2021/03/11 08:23:10;;;;;;;2.87;2.17;;;11.80;75.10;;;11.78;72.94;97243.25;5062316;28;20667;-68
2021/03/11 08:25:45;;;;;;;4.10;2.13;;;11.90;75.30;;;11.89;72.87;97246.59;5067411;28;21542;-68
2021/03/11 08:28:38;;;;;;;2.87;1.60;;;11.90;74.90;;;12.02;72.65;97244.56;5056639;28;20632;-68
2021/03/11 08:31:09;;;;;;;3.37;2.10;;;12.00;74.10;;;12.03;71.73;97230.53;5065542;28;20688;-68
2021/03/11 08:33:48;;;;;;;4.70;2.13;;;12.10;73.30;;;12.17;71.90;97260.69;5060265;28;20705;-68
2021/03/11 08:36:36;;;;;;;2.93;2.10;;;12.20;73.60;;;12.23;70.78;97251.34;5059223;28;20662;-68
2021/03/11 08:39:36;;;;;;;4.03;1.70;;;12.30;73.20;;;12.34;71.19;97237.31;5056499;28;20694;-68
2021/03/11 08:42:48;;;;;;;4.10;2.20;;;12.40;74.20;;;12.47;72.65;97235.28;5056670;28;20706;-68
2021/03/11 08:45:53;;;;;;;2.67;2.00;;;12.50;73.60;;;12.51;70.65;97219.16;5060002;28;20635;-68
2021/03/11 08:48:22;;;;;;;3.70;2.17;;;12.50;72.80;;;12.59;70.42;97213.25;5058507;28;20643;-68
2021/03/11 08:50:53;;;;;;;4.47;2.63;;;12.60;72.30;;;12.66;72.59;97196.88;5062325;28;20636;-69
2021/03/11 08:53:47;;;;;;;3.50;2.00;;;12.70;72.40;;;12.79;71.25;97197.38;5066944;28;20660;-69
2021/03/11 08:56:42;;;;;;;5.00;2.53;;;12.70;72.00;;;12.88;69.84;97194.78;5055477;28;20643;-69
2021/03/11 08:59:14;;;;;;;3.33;2.07;;;12.90;72.00;;;12.93;70.35;97200.44;5060624;28;20636;-67
2021/03/11 09:01:47;;;;;;;2.33;1.90;;;13.00;71.50;;;12.97;70.98;97199.16;5065825;28;20643;-67
2021/03/11 09:04:41;;;;;;;2.83;2.13;;;13.00;71.20;;;12.94;71.01;97202.06;5062464;28;20747;-67
2021/03/11 09:07:28;;;;;;;4.20;2.40;;;13.00;70.80;;;12.94;70.99;97202.06;5053832;28;20658;-67
2021/03/11 09:09:56;;;;;;;4.10;2.00;;;13.00;70.60;;;12.99;69.40;97193.78;5065630;28;20648;-67
2021/03/11 09:12:32;;;;;;;3.93;2.40;;;13.00;70.90;;;13.06;70.88;97200.13;5056399;28;20632;-67
2021/03/11 09:15:04;;;;;;;2.33;1.50;;;13.10;70.90;;;13.08;69.10;97199.03;5060507;28;21103;-67
2021/03/11 09:17:33;;;;;;;2.90;1.80;;;13.10;70.50;;;13.05;69.54;97188.84;5061430;28;20640;-67
2021/03/11 09:20:12;;;;;;;5.20;2.03;;;13.10;70.90;;;12.99;70.75;97189.41;5061455;28;20640;-67
2021/03/11 09:22:41;;;;;;;3.67;1.80;;;13.10;70.80;;;13.02;69.69;97193.50;5061590;28;20698;-67
2021/03/11 09:25:14;;;;;;;1.63;1.50;;;13.10;71.20;;;13.02;71.11;97183.88;5059333;28;20636;-67
2021/03/11 09:27:54;;;;;;;2.50;1.60;;;13.10;70.90;;;12.95;71.82;97198.50;5057314;28;20645;-67
2021/03/11 09:30:29;;;;;;;2.23;1.40;;;13.00;71.50;;;12.92;71.51;97203.19;5057100;28;21104;-67
2021/03/11 09:32:57;;;;;;;2.57;1.50;;;13.00;72.10;;;12.93;72.08;97189.97;5056002;28;21242;-67
2021/03/11 09:35:27;;;;;;;1.67;1.43;;;13.00;72.20;;;12.98;72.87;97197.41;5068648;28;20806;-67
2021/03/11 09:37:58;;;;;;;2.20;1.40;;;13.00;72.60;;;13.02;71.76;97186.50;5064424;28;20647;-67
2021/03/11 09:40:30;;;;;;;3.10;1.60;;;13.00;72.40;;;13.04;72.18;97176.72;5063567;28;20648;-67
2021/03/11 09:43:26;;;;;;;3.37;1.70;;;13.10;72.90;;;13.10;71.52;97191.84;5066630;28;20650;-67
2021/03/11 09:45:57;;;;;;;2.17;1.60;;;13.10;72.40;;;13.16;72.18;97193.09;5059664;28;20627;-67
2021/03/11 09:48:28;;;;;;;2.03;1.43;;;13.20;72.50;;;13.26;71.44;97186.81;5059971;28;20682;-67
2021/03/11 09:51:06;;;;;;;3.60;1.70;;;13.30;72.50;;;13.34;71.10;97189.56;5057989;28;20658;-67
2021/03/11 09:53:38;;;;;;;2.37;1.90;;;13.30;72.30;;;13.25;70.73;97174.72;5058880;28;20896;-67
2021/03/11 09:56:11;;;;;;;3.60;1.60;;;13.30;71.90;;;13.20;71.25;97169.91;5065003;28;20636;-67
2021/03/11 09:58:51;;;;;;;2.80;1.33;;;13.30;72.40;;;13.26;71.96;97171.09;5063442;28;20631;-67
2021/03/11 10:01:27;;;;;;;3.50;2.20;;;13.30;73.40;;;13.20;70.49;97172.53;5061885;28;20645;-67
2021/03/11 10:03:56;;;;;;;1.77;1.60;;;13.30;71.70;;;13.23;70.53;97159.16;5064945;28;20728;-67
2021/03/11 10:06:25;;;;;;;2.43;1.53;;;13.30;72.00;;;13.28;71.80;97150.84;5057864;28;20656;-67
2021/03/11 10:08:55;;;;;;;3.23;1.60;;;13.30;72.00;;;13.28;71.39;97164.78;5064692;28;20631;-67
2021/03/11 10:11:29;;;;;;;3.13;1.90;;;13.40;72.00;;;13.27;71.36;97162.28;5063708;28;20640;-67
2021/03/11 10:14:02;;;;;;;2.40;1.70;;;13.30;71.90;;;13.31;71.43;97148.78;5060963;28;20804;-67
2021/03/11 10:16:42;;;;;;;3.97;1.83;;;13.40;71.60;;;13.32;71.20;97149.59;5062316;28;21158;-67
2021/03/11 10:19:15;;;;;;;2.03;1.50;;;13.40;71.30;;;13.30;70.66;97139.25;5058707;28;21202;-67
2021/03/11 10:21:50;;;;;;;1.93;1.43;;;13.40;71.80;;;13.36;70.41;97140.47;5059421;28;21641;-67
2021/03/11 10:24:39;;;;;;;2.20;1.50;;;13.40;71.80;;;13.35;70.61;97144.06;5062003;28;20689;-67
2021/03/11 10:27:23;;;;;;;4.23;1.50;;;13.40;71.70;;;13.39;70.75;97145.44;5067743;28;21823;-67
2021/03/11 10:30:05;;;;;;;3.67;1.60;;;13.40;71.80;;;13.38;71.50;97143.78;5060573;28;20636;-67
2021/03/11 10:32:33;;;;;;;2.47;1.50;;;13.40;71.60;;;13.44;70.74;97143.19;5065647;28;20649;-67
2021/03/11 10:35:02;;;;;;;2.30;1.70;;;13.50;71.70;;;13.41;71.25;97148.72;5065938;28;20656;-67
2021/03/11 10:37:33;;;;;;;2.30;1.67;;;13.50;71.90;;;13.44;71.14;97141.41;5066884;28;20639;-67
2021/03/11 10:40:05;;;;;;;2.77;1.60;;;13.50;72.80;;;13.50;71.17;97145.22;5065003;28;20640;-67